Hlavní strana
METAR-TAF:

METAR-TAF

Letiště :

Letiště Teherán-Mehrabád

Teherán, Írán

zeměpisná šířka: 35-41N, zeměpisná délka: 051-21E, výška: 1204 m

Aktuální stav počasí

Zpráva byla vytvořena před 31 minutami, v 13:00 UTC
Jihojihovýchodní vítr 10 kt
Teplota 38°C
Vlhkost vzduchu 10%
Tlak 1010 hPa
Viditelnost 10 km a více
Skoro jasno ve výšce 4000 ft

METAR: OIII 171300Z 16010KT 9999 FEW040 38/01 Q1010 A2983 NOSIG

Čas: 18:01 (13:31 UTC)

Předpověď počasí

Zpráva byla vytvořena před 2 hodinami a 11 minutami, v 11:20 UTC
Předpověď platná od 17 v 12 UTC do 18 v 18 UTC
Jihovýchodní vítr 10 kt
Viditelnost 10 km a více
Žádná oblačnost pod 1500 m, nevyskytují se cumulonimby.
Změna
od 17 v 17 UTC do 17 v 19 UTC
Severoseverovýchodní vítr 6 kt
Změna
od 18 v 04 UTC do 18 v 06 UTC
Východojihovýchodní vítr 10 kt

TAF: OIII 171120Z 1712/1818 14005MPS CAVOK BECMG 1717/1719 03003MPS BECMG 1804/1806 12005MPS

Stav a předpovědi počasí z více než 4 000 letišť (zprávy METAR a TAF).

Červené a žluté tečky na mapě představují dostupné meteorologické stanice.

Když kurzor umístíte na tečku, zobrazí se název stanice.

Pak kliknutím zobrazíte stav a předpověď počasí.

Chcete-li změnit mapu, kliknutím na zelené tlačítko se znaménkem +mapu přiblížíte, kliknutím na zelené tlačítko se znaménkem – mapu oddálíte a kliknutím na zelené šipky přejdete na sousední mapy.


METAR-TAF: